Daishinmaru No.88 — JK5584 — position and weather

sailwx.info

Track history (hours):
 
Tides and Currents Weather Stations Pressure Air Temp Water Temp Dewpoint Dewpoint Depression Visibility Wind Speed Wind Dir Waves Ship Positions

Daishinmaru No.88

Last reported at 2017-Dec-14 05:13 UTC. Time now 2017-Dec-17 16:02 UTC.
Position N 35°37' E 139°59'.

Length 30 m.

Type: Towing. MMSI: 432474000.

Date/timePositionNaut miles runAvg speedWind from/ knotsBaromVisibWave heightAir tempDewpointWater temp
2017-Dec-14 05:13N 35°37' E 139°59'9 5.1
2017-Dec-14 03:31N 35°30' E 139°53'0 4.7
2017-Dec-14 03:28N 35°30' E 139°53'2 5.0
2017-Dec-14 03:00N 35°28' E 139°51'3 5.2
2017-Dec-14 02:30N 35°26' E 139°49'3 5.1
2017-Dec-14 02:00N 35°24' E 139°47'3 5.2
2017-Dec-14 01:30N 35°22' E 139°45'3 5.3
2017-Dec-14 01:00N 35°20' E 139°44'3 5.2
2017-Dec-14 00:30N 35°17' E 139°46'3 5.1
2017-Dec-14 00:00N 35°15' E 139°47'3 5.1
2017-Dec-13 23:30N 35°12' E 139°47'2 4.2
2017-Dec-13 22:58N 35°10' E 139°47'2 4.7
2017-Dec-13 22:29N 35°08' E 139°46'3 5.4
2017-Dec-13 21:59N 35°05' E 139°45'  
2017-Dec-09 11:51N 34°57' E 139°44'3 9.2
2017-Dec-09 11:29N 35°01' E 139°44'5 9.4
2017-Dec-09 11:00N 35°05' E 139°44'510.1
2017-Dec-09 10:30N 35°10' E 139°46'510.1
2017-Dec-09 09:59N 35°15' E 139°46'510.3
2017-Dec-09 09:30N 35°19' E 139°43'5 9.3
2017-Dec-09 09:00N 35°24' E 139°43'510.0
2017-Dec-09 08:30N 35°27' E 139°47'510.0
2017-Dec-09 07:59N 35°31' E 139°52'  
Track history (hours):
 
Tides and Currents Weather Stations Pressure Air Temp Water Temp Dewpoint Dewpoint Depression Visibility Wind Speed Wind Dir Waves Ship Positions

Daishinmaru No.88

Last reported at 2017-Dec-14 05:13 UTC. Time now 2017-Dec-17 16:02 UTC.
Position N 35°37' E 139°59'.

Length 30 m.

Type: Towing. MMSI: 432474000.

Date/timePositionNaut miles runAvg speedWind from/ knotsBaromVisibWave heightAir tempDewpointWater temp
2017-Dec-14 05:13N 35°37' E 139°59'9 5.1
2017-Dec-14 03:31N 35°30' E 139°53'0 4.7
2017-Dec-14 03:28N 35°30' E 139°53'2 5.0
2017-Dec-14 03:00N 35°28' E 139°51'3 5.2
2017-Dec-14 02:30N 35°26' E 139°49'3 5.1
2017-Dec-14 02:00N 35°24' E 139°47'3 5.2
2017-Dec-14 01:30N 35°22' E 139°45'3 5.3
2017-Dec-14 01:00N 35°20' E 139°44'3 5.2
2017-Dec-14 00:30N 35°17' E 139°46'3 5.1
2017-Dec-14 00:00N 35°15' E 139°47'3 5.1
2017-Dec-13 23:30N 35°12' E 139°47'2 4.2
2017-Dec-13 22:58N 35°10' E 139°47'2 4.7
2017-Dec-13 22:29N 35°08' E 139°46'3 5.4
2017-Dec-13 21:59N 35°05' E 139°45'  
2017-Dec-09 11:51N 34°57' E 139°44'3 9.2
2017-Dec-09 11:29N 35°01' E 139°44'5 9.4
2017-Dec-09 11:00N 35°05' E 139°44'510.1
2017-Dec-09 10:30N 35°10' E 139°46'510.1
2017-Dec-09 09:59N 35°15' E 139°46'510.3
2017-Dec-09 09:30N 35°19' E 139°43'5 9.3
2017-Dec-09 09:00N 35°24' E 139°43'510.0
2017-Dec-09 08:30N 35°27' E 139°47'510.0
2017-Dec-09 07:59N 35°31' E 139°52'  

Dump ship's entire track history